createdAt,value
2019-02-02T00:06:03.686Z,2.18
2019-02-02T00:12:09.772Z,2.20
2019-02-02T00:18:15.844Z,2.31
2019-02-02T00:24:21.923Z,2.45
2019-02-02T00:30:27.629Z,2.44
2019-02-02T00:36:33.442Z,2.41
2019-02-02T00:42:39.199Z,2.47
2019-02-02T00:48:45.021Z,2.54
2019-02-02T00:54:51.334Z,2.51
2019-02-02T01:00:58.856Z,2.52
2019-02-02T01:07:05.567Z,2.64
2019-02-02T01:13:11.416Z,2.77
2019-02-02T01:19:17.556Z,2.92
2019-02-02T01:25:23.435Z,3.04
2019-02-02T01:31:29.260Z,3.12
2019-02-02T01:37:35.040Z,3.13
2019-02-02T01:43:41.244Z,3.07
2019-02-02T01:49:47.305Z,3.03
2019-02-02T01:55:53.068Z,2.98
2019-02-02T02:01:59.250Z,3.01
2019-02-02T02:08:24.089Z,3.01
2019-02-02T02:14:30.517Z,2.98
2019-02-02T02:20:36.344Z,3.02
2019-02-02T02:26:42.259Z,3.08
2019-02-02T02:32:48.166Z,3.10
2019-02-02T02:38:54.089Z,3.15
2019-02-02T02:45:00.414Z,3.17
2019-02-02T02:51:06.366Z,3.19
2019-02-02T02:57:12.241Z,3.23
2019-02-02T03:03:18.529Z,3.29
2019-02-02T03:09:24.862Z,3.32
2019-02-02T03:15:31.294Z,3.39
2019-02-02T03:21:37.173Z,3.37
2019-02-02T03:27:42.970Z,3.41
2019-02-02T03:33:49.013Z,3.45
2019-02-02T03:39:54.755Z,3.46
2019-02-02T03:46:00.540Z,3.51
2019-02-02T03:52:06.301Z,3.38
2019-02-02T03:58:12.656Z,3.34
2019-02-02T04:04:18.403Z,3.35
2019-02-02T04:10:24.717Z,3.37
2019-02-02T04:16:31.068Z,3.36
2019-02-02T04:22:36.863Z,3.35
2019-02-02T04:28:42.768Z,3.36
2019-02-02T04:34:48.569Z,3.38
2019-02-02T04:40:54.894Z,3.41
2019-02-02T04:47:00.630Z,3.40
2019-02-02T04:53:06.583Z,3.42
2019-02-02T04:59:12.592Z,3.39
2019-02-02T05:05:18.601Z,3.47
2019-02-02T05:11:25.405Z,3.49
2019-02-02T05:17:31.822Z,3.52
2019-02-02T05:23:37.867Z,3.47
2019-02-02T05:29:43.571Z,3.49
2019-02-02T05:35:49.382Z,3.51
2019-02-02T05:41:55.476Z,3.54
2019-02-02T05:48:01.841Z,3.55
2019-02-02T05:54:07.645Z,3.53
2019-02-02T06:00:50.741Z,3.60
2019-02-02T06:06:56.749Z,3.60
2019-02-02T06:13:02.541Z,3.53
2019-02-02T06:19:08.476Z,3.52
2019-02-02T06:25:14.996Z,3.63
2019-02-02T06:31:20.983Z,3.67
2019-02-02T06:37:26.814Z,3.71
2019-02-02T06:43:32.875Z,3.71
2019-02-02T06:49:39.223Z,3.71
2019-02-02T06:55:45.326Z,3.76
2019-02-02T07:01:51.657Z,3.83
2019-02-02T07:07:57.742Z,3.85
2019-02-02T07:14:03.902Z,3.81
2019-02-02T07:20:12.598Z,3.79
2019-02-02T07:26:18.541Z,3.78
2019-02-02T07:32:24.440Z,3.74
2019-02-02T07:38:30.248Z,3.71
2019-02-02T07:44:36.137Z,3.69
2019-02-02T07:50:42.349Z,3.73
2019-02-02T07:56:48.498Z,3.79
2019-02-02T08:02:54.891Z,3.76
2019-02-02T08:09:00.578Z,3.72
2019-02-02T08:15:09.187Z,3.75
2019-02-02T08:21:15.823Z,3.77
2019-02-02T08:27:23.892Z,3.79
2019-02-02T08:33:32.592Z,3.82
2019-02-02T08:39:38.579Z,3.82
2019-02-02T08:45:44.498Z,3.87
2019-02-02T08:51:50.408Z,3.92
2019-02-02T08:57:58.350Z,4.02
2019-02-02T09:04:04.771Z,4.07
2019-02-02T09:10:15.224Z,4.10
2019-02-02T09:16:21.208Z,4.05
2019-02-02T09:22:27.332Z,3.99
2019-02-02T09:28:33.251Z,3.97
2019-02-02T09:34:39.496Z,3.99
2019-02-02T09:40:45.715Z,4.02
2019-02-02T09:46:51.894Z,4.04
2019-02-02T09:52:57.794Z,4.03
2019-02-02T09:59:03.643Z,4.04
2019-02-02T10:05:09.727Z,4.12
2019-02-02T10:11:15.589Z,4.11
2019-02-02T10:17:21.689Z,4.17
2019-02-02T10:23:27.605Z,4.17
2019-02-02T10:29:34.069Z,4.27
2019-02-02T10:35:39.970Z,4.34
2019-02-02T10:41:45.881Z,4.46
2019-02-02T10:47:52.132Z,4.57
2019-02-02T10:53:57.855Z,4.51
2019-02-02T11:00:03.671Z,4.42
2019-02-02T11:06:09.670Z,4.42
2019-02-02T11:12:15.819Z,4.23
2019-02-02T11:18:21.650Z,4.26
2019-02-02T11:24:27.762Z,4.25
2019-02-02T11:30:33.722Z,4.26
2019-02-02T11:36:39.873Z,4.26
2019-02-02T11:42:45.843Z,4.31
2019-02-02T11:48:51.546Z,4.21
2019-02-02T11:54:57.306Z,4.31
2019-02-02T12:01:03.384Z,4.34
2019-02-02T12:07:09.668Z,4.35
2019-02-02T12:13:16.596Z,4.30
2019-02-02T12:19:30.674Z,4.32
2019-02-02T12:25:36.626Z,4.22
2019-02-02T12:31:42.993Z,4.11
2019-02-02T12:37:49.437Z,4.13
2019-02-02T12:43:55.211Z,4.19
2019-02-02T12:50:01.255Z,4.07
2019-02-02T12:56:07.470Z,4.07
2019-02-02T13:02:13.320Z,4.08
2019-02-02T13:08:19.216Z,3.99
2019-02-02T13:14:24.942Z,3.94
2019-02-02T13:20:30.971Z,4.03
2019-02-02T13:26:37.075Z,4.04
2019-02-02T13:32:49.791Z,4.07
2019-02-02T13:38:50.921Z,3.96
2019-02-02T13:44:56.806Z,3.91
2019-02-02T13:51:02.568Z,3.93
2019-02-02T13:57:08.519Z,3.89
2019-02-02T14:03:14.254Z,3.88
2019-02-02T14:09:20.298Z,3.90
2019-02-02T14:15:26.053Z,3.83
2019-02-02T14:21:32.563Z,3.70
2019-02-02T14:27:38.733Z,3.49
2019-02-02T14:33:50.470Z,3.50
2019-02-02T14:39:56.760Z,3.49
2019-02-02T14:46:06.928Z,3.52
2019-02-02T14:52:12.792Z,3.57
2019-02-02T14:58:20.949Z,3.62
2019-02-02T15:04:26.811Z,3.59
2019-02-02T15:10:35.642Z,3.54
2019-02-02T15:16:41.510Z,3.43
2019-02-02T15:22:47.849Z,3.38
2019-02-02T15:28:55.146Z,3.52
2019-02-02T15:35:02.282Z,3.60
2019-02-02T15:41:08.021Z,3.60
2019-02-02T15:47:13.846Z,3.49
2019-02-02T15:53:19.613Z,3.48
2019-02-02T15:59:25.570Z,3.51
2019-02-02T16:05:33.561Z,3.51
2019-02-02T16:11:39.320Z,3.53
2019-02-02T16:17:45.168Z,3.51
2019-02-02T16:23:52.779Z,3.44
2019-02-02T16:29:58.576Z,3.35
2019-02-02T16:36:05.942Z,3.35
2019-02-02T16:42:11.635Z,3.40
2019-02-02T16:48:17.458Z,3.28
2019-02-02T16:54:23.356Z,3.24
2019-02-02T17:00:32.494Z,3.25
2019-02-02T17:06:38.468Z,3.25
2019-02-02T17:12:44.670Z,3.21
2019-02-02T17:18:50.726Z,3.20
2019-02-02T17:24:56.621Z,3.23
2019-02-02T17:31:02.460Z,3.16
2019-02-02T17:37:08.406Z,3.15
2019-02-02T17:43:14.280Z,3.14
2019-02-02T17:49:20.808Z,3.18
2019-02-02T17:55:26.759Z,3.18
2019-02-02T18:01:33.261Z,3.12
2019-02-02T18:07:39.443Z,3.17
2019-02-02T18:13:45.268Z,3.17
2019-02-02T18:19:51.654Z,3.19
2019-02-02T18:25:57.759Z,3.18
2019-02-02T18:32:12.701Z,3.24
2019-02-02T18:38:12.207Z,3.19
2019-02-02T18:44:20.513Z,3.15
2019-02-02T18:50:26.768Z,3.04
2019-02-02T18:56:33.890Z,3.07
2019-02-02T19:02:41.976Z,3.06
2019-02-02T19:08:48.170Z,3.01
2019-02-02T19:14:54.813Z,2.93
2019-02-02T19:21:00.764Z,3.01
2019-02-02T19:27:17.379Z,3.05
2019-02-02T19:33:26.170Z,4.09
2019-02-02T19:39:32.436Z,3.14
2019-02-02T19:45:38.243Z,2.92
2019-02-02T19:51:46.721Z,2.80
2019-02-02T19:57:53.345Z,2.80
2019-02-02T20:04:02.319Z,2.88
2019-02-02T20:10:11.469Z,2.78
2019-02-02T20:16:17.540Z,2.79
2019-02-02T20:22:23.674Z,2.79
2019-02-02T20:28:29.666Z,2.77
2019-02-02T20:34:38.599Z,2.89
2019-02-02T20:40:45.479Z,2.90
2019-02-02T20:46:51.578Z,2.88
2019-02-02T20:52:57.457Z,2.90
2019-02-02T20:59:03.530Z,3.01
2019-02-02T21:05:09.315Z,3.04
2019-02-02T21:11:15.330Z,3.09
2019-02-02T21:17:21.718Z,3.11
2019-02-02T21:23:27.676Z,3.13
2019-02-02T21:29:33.772Z,3.10
2019-02-02T21:35:40.272Z,3.19
2019-02-02T21:41:46.303Z,3.17
2019-02-02T21:47:52.197Z,3.21
2019-02-02T21:53:58.348Z,3.19
2019-02-02T22:00:04.657Z,3.18
2019-02-02T22:06:15.466Z,3.15
2019-02-02T22:12:18.199Z,3.14
2019-02-02T22:18:24.132Z,3.16
2019-02-02T22:24:30.795Z,3.09
2019-02-02T22:30:38.397Z,2.97
2019-02-02T22:36:44.728Z,2.87
2019-02-02T22:42:50.767Z,2.86
2019-02-02T22:48:56.704Z,2.65
2019-02-02T22:55:02.784Z,2.68
2019-02-02T23:01:36.710Z,2.78
2019-02-02T23:08:54.810Z,2.76
2019-02-02T23:16:13.364Z,2.79
2019-02-02T23:22:19.372Z,2.77
2019-02-02T23:28:25.237Z,2.80
2019-02-02T23:34:31.332Z,2.78
2019-02-02T23:40:37.130Z,2.77
2019-02-02T23:46:42.992Z,2.78
2019-02-02T23:52:48.859Z,2.78
2019-02-02T23:58:55.195Z,2.74
